Time;durP1;ratioP1;P1;durP2;ratioP2;P2;SDS_P1;SDS_P2;PMS_P1;PMS_P2;Temp;Humidity;BMP_temperature;BMP_pressure;BME280_temperature;BME280_humidity;BME280_pressure;Samples;Min_cycle;Max_cycle;Signal;HPM_P1;HPM_P2
2021/05/02 00:02:21;;;;;;;11.83;10.73;;;12.10;78.90;;;;;;5053853;28;20233;-85
2021/05/02 00:04:47;;;;;;;12.40;11.10;;;12.00;79.20;;;;;;5054844;28;20540;-86
2021/05/02 00:07:13;;;;;;;12.00;10.67;;;12.00;79.10;;;;;;5054105;28;20521;-86
2021/05/02 00:09:39;;;;;;;11.53;10.53;;;12.00;79.50;;;;;;5035890;28;20412;-88
2021/05/02 00:12:05;;;;;;;12.30;11.10;;;12.10;80.60;;;;;;5054601;28;20443;-88
2021/05/02 00:14:31;;;;;;;12.10;10.90;;;11.90;80.50;;;;;;5053800;28;20476;-88
2021/05/02 00:16:57;;;;;;;11.57;10.37;;;11.90;80.80;;;;;;5036044;28;20747;-87
2021/05/02 00:19:23;;;;;;;12.03;10.73;;;11.90;81.10;;;;;;5035968;28;20260;-86
2021/05/02 00:21:51;;;;;;;13.77;10.90;;;11.90;81.00;;;;;;5054606;28;20962;-88
2021/05/02 00:24:22;;;;;;;11.83;10.67;;;11.80;81.20;;;;;;5054106;28;20692;-86
2021/05/02 00:26:50;;;;;;;13.23;11.90;;;11.80;81.30;;;;;;5053914;28;20421;-87
2021/05/02 00:29:17;;;;;;;12.20;11.00;;;11.80;81.60;;;;;;5054377;28;20461;-88
2021/05/02 00:31:43;;;;;;;12.70;10.80;;;11.70;81.70;;;;;;5053262;28;21322;-87
2021/05/02 00:34:10;;;;;;;13.10;11.90;;;11.80;81.70;;;;;;5036525;28;20474;-87
2021/05/02 00:36:37;;;;;;;12.13;10.93;;;11.70;81.20;;;;;;5053461;28;20492;-87
2021/05/02 00:39:05;;;;;;;12.50;11.30;;;11.70;81.30;;;;;;5054199;28;20409;-86
2021/05/02 00:41:36;;;;;;;13.00;11.80;;;11.70;81.40;;;;;;5035352;28;20471;-86
2021/05/02 00:44:29;;;;;;;12.63;11.43;;;11.70;81.60;;;;;;5054020;28;20422;-86
2021/05/02 00:47:14;;;;;;;12.93;11.60;;;11.80;81.90;;;;;;5028832;28;20945;-87
2021/05/02 00:49:43;;;;;;;12.77;11.43;;;11.70;82.40;;;;;;5032902;28;20431;-87
2021/05/02 00:52:31;;;;;;;12.77;11.43;;;11.60;83.20;;;;;;5034094;28;20417;-87
2021/05/02 00:55:05;;;;;;;13.23;12.00;;;11.60;83.50;;;;;;5033819;28;20451;-87
2021/05/02 00:57:41;;;;;;;13.90;12.33;;;11.60;84.20;;;;;;5033072;28;20394;-87
2021/05/02 01:00:10;;;;;;;13.20;11.80;;;11.50;84.60;;;;;;5033600;28;20426;-87
2021/05/02 01:02:36;;;;;;;13.33;12.03;;;11.50;85.10;;;;;;5032843;28;20412;-87
2021/05/02 01:05:07;;;;;;;14.93;13.43;;;11.60;85.50;;;;;;5037821;28;20910;-87
2021/05/02 01:07:38;;;;;;;14.77;13.27;;;11.40;86.40;;;;;;5053057;28;20392;-87
2021/05/02 01:10:15;;;;;;;14.47;12.97;;;11.40;87.50;;;;;;5053068;28;20893;-86
2021/05/02 01:12:47;;;;;;;15.60;14.00;;;11.40;88.40;;;;;;5052741;28;20480;-85
2021/05/02 01:15:25;;;;;;;17.30;15.50;;;11.40;89.20;;;;;;5053334;28;20588;-86
2021/05/02 01:18:08;;;;;;;15.73;14.13;;;11.20;90.00;;;;;;5052950;28;20411;-86
2021/05/02 01:20:41;;;;;;;17.03;15.23;;;11.20;90.50;;;;;;5014640;28;20420;-86
2021/05/02 01:23:26;;;;;;;16.20;13.90;;;11.30;91.10;;;;;;5033218;28;20425;-86
2021/05/02 01:25:57;;;;;;;17.57;14.83;;;11.20;90.90;;;;;;5033484;28;20522;-86
2021/05/02 01:28:24;;;;;;;16.33;14.53;;;11.20;91.00;;;;;;5014471;28;20911;-83
2021/05/02 01:30:50;;;;;;;16.90;14.80;;;11.20;91.10;;;;;;5032961;28;20456;-87
2021/05/02 01:33:16;;;;;;;18.17;15.70;;;11.20;91.00;;;;;;5019467;28;20847;-86
2021/05/02 01:35:43;;;;;;;17.67;15.17;;;11.20;90.70;;;;;;5052229;28;20978;-86
2021/05/02 01:38:10;;;;;;;18.80;16.37;;;11.30;90.80;;;;;;5052953;28;20885;-86
2021/05/02 01:40:35;;;;;;;16.73;14.93;;;11.30;90.70;;;;;;5052525;28;20501;-87
2021/05/02 01:43:02;;;;;;;18.00;16.10;;;11.30;91.30;;;;;;5054447;28;20501;-86
2021/05/02 01:45:28;;;;;;;16.80;15.00;;;11.30;90.80;;;;;;5053476;28;20183;-85
2021/05/02 01:48:06;;;;;;;16.17;14.47;;;11.30;90.80;;;;;;5035026;28;20957;-87
2021/05/02 01:50:51;;;;;;;14.87;13.47;;;11.30;90.60;;;;;;5052144;28;20777;-87
2021/05/02 01:53:18;;;;;;;15.13;13.53;;;11.30;90.40;;;;;;5053090;28;20392;-86
2021/05/02 01:55:46;;;;;;;17.00;15.13;;;11.40;90.30;;;;;;5051541;28;20725;-86
2021/05/02 01:58:13;;;;;;;15.67;14.07;;;11.30;90.30;;;;;;5052376;28;20416;-86
2021/05/02 02:00:56;;;;;;;15.93;14.33;;;11.30;90.40;;;;;;5051522;28;20411;-86
2021/05/02 02:03:23;;;;;;;16.00;14.30;;;11.30;90.60;;;;;;5052019;28;20909;-86
2021/05/02 02:05:49;;;;;;;16.87;15.17;;;11.40;90.90;;;;;;5051428;28;20501;-86
2021/05/02 02:08:17;;;;;;;16.60;14.10;;;11.40;90.90;;;;;;5052695;28;20552;-86
2021/05/02 02:10:44;;;;;;;16.60;14.90;;;11.40;91.00;;;;;;5051537;28;20432;-86
2021/05/02 02:13:12;;;;;;;15.73;13.70;;;11.40;91.10;;;;;;5052293;28;20735;-86
2021/05/02 02:15:39;;;;;;;17.03;15.20;;;11.40;90.90;;;;;;5051130;28;20474;-86
2021/05/02 02:18:05;;;;;;;16.23;14.40;;;11.40;90.90;;;;;;5052281;28;20405;-86
2021/05/02 02:20:37;;;;;;;18.90;15.87;;;11.40;90.80;;;;;;5051433;28;20789;-85
2021/05/02 02:23:09;;;;;;;15.27;13.67;;;11.40;90.80;;;;;;5051608;28;20464;-86
2021/05/02 02:25:41;;;;;;;16.50;14.30;;;11.40;90.60;;;;;;5051244;28;20476;-86
2021/05/02 02:28:11;;;;;;;16.90;14.70;;;11.50;90.70;;;;;;5052347;28;20414;-87
2021/05/02 02:30:39;;;;;;;18.17;15.93;;;11.40;91.10;;;;;;5051149;28;20897;-86
2021/05/02 02:33:06;;;;;;;18.40;15.47;;;11.40;90.80;;;;;;5051863;28;20415;-87
2021/05/02 02:35:39;;;;;;;20.37;16.33;;;11.40;91.10;;;;;;5050832;28;20902;-86
2021/05/02 02:38:08;;;;;;;18.20;16.30;;;11.40;91.10;;;;;;5034985;28;20395;-87
2021/05/02 02:40:38;;;;;;;20.57;17.27;;;11.40;91.10;;;;;;5057628;28;20411;-86
2021/05/02 02:43:05;;;;;;;17.60;15.57;;;11.30;91.00;;;;;;5024006;28;20949;-87
2021/05/02 02:45:34;;;;;;;16.17;14.53;;;11.30;91.10;;;;;;5057742;28;20452;-86
2021/05/02 02:48:03;;;;;;;16.60;14.87;;;11.30;91.00;;;;;;5040910;28;20443;-87
2021/05/02 02:50:30;;;;;;;17.20;14.07;;;11.20;90.90;;;;;;5058066;28;20403;-84
2021/05/02 02:53:01;;;;;;;13.17;11.87;;;11.20;91.20;;;;;;5058439;28;20460;-86
2021/05/02 02:55:27;;;;;;;14.40;12.90;;;11.10;91.20;;;;;;5058464;28;20444;-83
2021/05/02 02:58:00;;;;;;;14.07;12.70;;;11.10;91.20;;;;;;5057855;28;20444;-86
2021/05/02 03:00:33;;;;;;;15.83;13.90;;;11.10;91.50;;;;;;5058709;28;20677;-86
2021/05/02 03:03:12;;;;;;;13.23;11.93;;;11.10;91.60;;;;;;5058433;28;20406;-86
2021/05/02 03:05:38;;;;;;;13.50;12.20;;;11.10;91.50;;;;;;5039837;28;20520;-86
2021/05/02 03:08:06;;;;;;;14.63;13.07;;;11.10;91.60;;;;;;5058393;28;20417;-86
2021/05/02 03:10:33;;;;;;;13.63;12.20;;;11.10;91.90;;;;;;5057727;28;20893;-82
2021/05/02 03:12:59;;;;;;;14.73;13.07;;;11.10;91.50;;;;;;5058442;28;20442;-86
2021/05/02 03:15:26;;;;;;;13.93;12.53;;;11.10;91.40;;;;;;5040460;28;20483;-87
2021/05/02 03:18:07;;;;;;;13.43;11.97;;;11.00;91.60;;;;;;5057570;28;20404;-86
2021/05/02 03:20:38;;;;;;;13.77;12.43;;;11.10;91.60;;;;;;5057661;28;20409;-83
2021/05/02 03:23:30;;;;;;;13.70;12.33;;;11.00;91.60;;;;;;5057917;28;20426;-86
2021/05/02 03:26:01;;;;;;;12.80;11.40;;;11.00;91.70;;;;;;5058364;28;20468;-87
2021/05/02 03:28:57;;;;;;;12.10;10.90;;;11.00;91.80;;;;;;5058458;28;20792;-86
2021/05/02 03:31:32;;;;;;;12.30;11.07;;;10.90;91.70;;;;;;5040549;28;20937;-87
2021/05/02 03:34:05;;;;;;;12.50;11.10;;;10.90;91.50;;;;;;5040184;28;20411;-87
2021/05/02 03:36:38;;;;;;;11.43;10.30;;;10.80;91.60;;;;;;5040155;28;20489;-83
2021/05/02 03:39:05;;;;;;;10.70;9.70;;;10.90;91.70;;;;;;5057604;28;20410;-87
2021/05/02 03:41:34;;;;;;;11.37;10.27;;;10.80;91.60;;;;;;5057956;28;20511;-83
2021/05/02 03:44:00;;;;;;;11.70;10.50;;;10.70;91.70;;;;;;5058161;28;20407;-87
2021/05/02 03:46:26;;;;;;;11.13;10.00;;;10.80;91.90;;;;;;5040272;28;20432;-87
2021/05/02 03:48:54;;;;;;;11.13;10.07;;;10.70;91.70;;;;;;5057065;28;20408;-86
2021/05/02 03:51:21;;;;;;;11.37;10.17;;;10.70;92.00;;;;;;5036888;28;20555;-86
2021/05/02 03:53:47;;;;;;;11.20;10.10;;;10.70;91.90;;;;;;5054146;28;20412;-86
2021/05/02 03:56:27;;;;;;;10.87;9.87;;;10.80;91.80;;;;;;5054911;28;20958;-86
2021/05/02 03:58:53;;;;;;;11.10;10.00;;;10.80;91.80;;;;;;5053614;28;21128;-85
2021/05/02 04:01:19;;;;;;;11.70;10.60;;;10.80;91.70;;;;;;5054751;28;20476;-86
2021/05/02 04:03:46;;;;;;;11.93;10.93;;;10.80;91.60;;;;;;5036179;28;20170;-85
2021/05/02 04:06:12;;;;;;;12.23;10.93;;;10.80;91.80;;;;;;5054436;28;20483;-86
2021/05/02 04:08:38;;;;;;;11.47;10.43;;;10.80;91.50;;;;;;5053810;28;20425;-85
2021/05/02 04:11:03;;;;;;;12.40;11.20;;;10.80;91.50;;;;;;5054918;28;20178;-86
2021/05/02 04:13:29;;;;;;;14.57;11.97;;;10.80;92.00;;;;;;5054869;28;20175;-86
2021/05/02 04:15:55;;;;;;;12.63;11.43;;;10.80;91.80;;;;;;5053847;28;20730;-86
2021/05/02 04:18:30;;;;;;;12.13;10.30;;;10.70;91.60;;;;;;5036204;28;20180;-86
2021/05/02 04:20:55;;;;;;;10.90;9.80;;;10.80;91.50;;;;;;5053275;28;20916;-86
2021/05/02 04:23:21;;;;;;;11.37;10.33;;;10.70;91.90;;;;;;5058234;28;20546;-86
2021/05/02 04:25:47;;;;;;;11.03;9.93;;;10.80;91.90;;;;;;5073668;28;20200;-86
2021/05/02 04:28:12;;;;;;;10.13;9.17;;;10.70;91.90;;;;;;5073863;28;20252;-86
2021/05/02 04:30:38;;;;;;;10.10;9.20;;;10.80;91.80;;;;;;5073208;28;20211;-85
2021/05/02 04:33:04;;;;;;;10.77;9.67;;;10.80;91.80;;;;;;5073073;28;20244;-86
2021/05/02 04:35:29;;;;;;;10.60;9.60;;;10.80;91.80;;;;;;5074225;28;20202;-87
2021/05/02 04:37:55;;;;;;;10.90;9.90;;;10.80;91.70;;;;;;5073200;28;20170;-86
2021/05/02 04:40:21;;;;;;;11.40;10.20;;;10.90;91.60;;;;;;5073863;28;20190;-86
2021/05/02 04:42:46;;;;;;;10.60;9.60;;;10.80;91.70;;;;;;5072975;28;20626;-86
2021/05/02 04:45:13;;;;;;;11.10;9.37;;;10.80;91.70;;;;;;5074012;28;20221;-86
2021/05/02 04:47:38;;;;;;;11.40;10.30;;;10.90;91.50;;;;;;5072847;28;20179;-85
2021/05/02 04:50:05;;;;;;;13.03;9.80;;;10.90;91.50;;;;;;5073949;28;20411;-86
2021/05/02 04:52:31;;;;;;;11.23;9.97;;;10.90;91.60;;;;;;5073033;28;20214;-85
2021/05/02 04:54:56;;;;;;;11.83;10.57;;;10.90;91.80;;;;;;5072437;28;20567;-85
2021/05/02 04:57:22;;;;;;;11.30;10.27;;;10.90;91.90;;;;;;5073821;28;20184;-86
2021/05/02 04:59:48;;;;;;;11.03;9.90;;;10.80;91.80;;;;;;5072771;28;20178;-85
2021/05/02 05:02:13;;;;;;;12.90;10.90;;;10.80;91.90;;;;;;5072325;28;20185;-86
2021/05/02 05:04:39;;;;;;;13.73;10.97;;;10.80;91.80;;;;;;5071722;28;20189;-84
2021/05/02 05:07:05;;;;;;;12.50;11.30;;;10.80;92.10;;;;;;5073434;28;20181;-86
2021/05/02 05:09:30;;;;;;;14.33;12.83;;;10.80;92.20;;;;;;5073559;28;20202;-86
2021/05/02 05:11:56;;;;;;;13.73;12.30;;;10.80;92.00;;;;;;5072808;28;20395;-86
2021/05/02 05:14:22;;;;;;;14.83;12.63;;;10.80;92.10;;;;;;5072435;28;20554;-86
2021/05/02 05:16:47;;;;;;;13.90;12.50;;;10.80;91.90;;;;;;5072520;28;20181;-85
2021/05/02 05:19:13;;;;;;;14.60;13.20;;;10.80;91.70;;;;;;5073581;28;20179;-86
2021/05/02 05:21:39;;;;;;;15.17;13.43;;;10.70;91.90;;;;;;5071351;28;20621;-83
2021/05/02 05:24:05;;;;;;;15.30;12.87;;;10.70;92.20;;;;;;5071865;28;20304;-86
2021/05/02 05:26:31;;;;;;;17.00;13.67;;;10.70;92.10;;;;;;5072974;28;20181;-87
2021/05/02 05:28:57;;;;;;;14.63;13.20;;;10.70;92.30;;;;;;5070555;28;20461;-85
2021/05/02 05:31:22;;;;;;;16.70;15.10;;;10.70;92.10;;;;;;5070782;28;20632;-86
2021/05/02 05:33:48;;;;;;;17.10;13.53;;;10.60;92.10;;;;;;5071052;28;20182;-86
2021/05/02 05:36:15;;;;;;;15.77;14.10;;;10.60;92.30;;;;;;5072853;28;20199;-87
2021/05/02 05:38:41;;;;;;;14.50;13.00;;;10.60;92.30;;;;;;5072362;28;20243;-86
2021/05/02 05:41:06;;;;;;;16.03;14.33;;;10.60;92.80;;;;;;5072937;28;20440;-86
2021/05/02 05:43:32;;;;;;;16.60;14.80;;;10.50;92.50;;;;;;5072734;28;20169;-86
2021/05/02 05:45:58;;;;;;;16.30;14.77;;;10.50;92.50;;;;;;5070759;28;20224;-86
2021/05/02 05:48:24;;;;;;;16.40;14.80;;;10.60;92.60;;;;;;5071515;28;20191;-86
2021/05/02 05:50:49;;;;;;;18.40;16.47;;;10.60;92.80;;;;;;5070291;28;20182;-86
2021/05/02 05:53:16;;;;;;;15.63;14.03;;;10.70;92.70;;;;;;5072374;28;20200;-87
2021/05/02 05:55:43;;;;;;;17.57;15.67;;;10.80;93.00;;;;;;5071504;28;20215;-86
2021/05/02 05:58:08;;;;;;;16.70;14.93;;;10.70;92.50;;;;;;5072594;28;20421;-86
2021/05/02 06:00:34;;;;;;;16.30;14.70;;;10.70;92.60;;;;;;5071885;28;20444;-86
2021/05/02 06:03:00;;;;;;;15.23;13.10;;;10.70;92.30;;;;;;5070656;28;20620;-86
2021/05/02 06:05:25;;;;;;;13.60;12.20;;;10.70;92.10;;;;;;5071254;28;20232;-84
2021/05/02 06:07:51;;;;;;;13.80;12.10;;;10.70;92.10;;;;;;5069775;28;20178;-80
2021/05/02 06:10:17;;;;;;;13.27;12.17;;;10.80;96.00;;;;;;5071312;28;20182;-80
2021/05/02 06:12:42;;;;;;;15.20;11.87;;;11.30;99.90;;;;;;5071611;28;20192;-82
2021/05/02 06:15:13;;;;;;;13.30;12.00;;;12.10;99.90;;;;;;5070243;28;20568;-79
2021/05/02 06:17:40;;;;;;;11.30;10.40;;;12.60;99.90;;;;;;5070985;28;20255;-79
2021/05/02 06:20:06;;;;;;;12.30;11.00;;;13.10;95.10;;;;;;5071901;28;20403;-80
2021/05/02 06:22:32;;;;;;;12.00;11.00;;;13.40;96.20;;;;;;5071696;28;20445;-80
2021/05/02 06:24:58;;;;;;;12.07;10.97;;;13.90;96.90;;;;;;5054399;28;20448;-81
2021/05/02 06:27:24;;;;;;;11.30;10.20;;;14.20;93.00;;;;;;5033929;28;20702;-81
2021/05/02 06:29:49;;;;;;;11.27;10.27;;;14.50;91.70;;;;;;5051719;28;20448;-81
2021/05/02 06:32:15;;;;;;;11.00;10.00;;;14.80;89.00;;;;;;5052785;28;20183;-81
2021/05/02 06:34:41;;;;;;;11.93;10.83;;;14.80;88.50;;;;;;5033925;28;20651;-84
2021/05/02 06:37:06;;;;;;;11.30;10.10;;;15.10;89.20;;;;;;5033839;28;20176;-84
2021/05/02 06:39:32;;;;;;;11.33;10.33;;;15.20;89.30;;;;;;5051805;28;20530;-84
2021/05/02 06:41:58;;;;;;;10.97;9.97;;;15.40;90.40;;;;;;5051214;28;20177;-86
2021/05/02 06:44:24;;;;;;;10.30;9.30;;;15.50;87.70;;;;;;5052371;28;20184;-85
2021/05/02 06:46:49;;;;;;;10.70;9.80;;;15.60;88.80;;;;;;5032565;28;20176;-84
2021/05/02 06:49:15;;;;;;;10.80;9.90;;;15.50;77.40;;;;;;5051740;28;20172;-84
2021/05/02 06:51:41;;;;;;;11.20;10.20;;;15.20;74.80;;;;;;5034242;28;20175;-86
2021/05/02 06:54:08;;;;;;;11.40;10.20;;;14.80;75.00;;;;;;5052244;28;20178;-90
2021/05/02 06:56:35;;;;;;;11.63;10.50;;;14.20;76.80;;;;;;5052787;28;20417;-90
2021/05/02 06:59:02;;;;;;;10.93;9.77;;;13.90;78.80;;;;;;5051968;28;20425;-92
2021/05/02 07:01:27;;;;;;;10.20;9.20;;;13.40;79.70;;;;;;5035943;28;20424;-92
2021/05/02 07:03:54;;;;;;;9.73;8.73;;;13.10;80.90;;;;;;5035136;28;20404;-90
2021/05/02 07:06:20;;;;;;;8.70;8.10;;;12.80;82.30;;;;;;5054432;28;20629;-89
2021/05/02 07:08:45;;;;;;;9.57;8.53;;;12.60;83.40;;;;;;5052370;28;20409;-87
2021/05/02 07:11:12;;;;;;;8.43;7.73;;;12.30;85.10;;;;;;5034614;28;20484;-88
2021/05/02 07:13:37;;;;;;;9.03;8.10;;;12.20;84.60;;;;;;5033586;28;20257;-87
2021/05/02 07:16:03;;;;;;;8.43;7.50;;;12.00;84.20;;;;;;5051711;28;20552;-89
2021/05/02 07:18:34;;;;;;;9.07;8.17;;;11.80;84.40;;;;;;5034763;28;20192;-88
2021/05/02 07:21:00;;;;;;;8.30;6.83;;;11.70;85.20;;;;;;5055279;28;20403;-87
2021/05/02 07:23:26;;;;;;;7.80;7.00;;;11.70;86.40;;;;;;5051674;28;20446;-86
2021/05/02 07:25:52;;;;;;;7.33;6.10;;;11.60;87.40;;;;;;5075602;28;20763;-84
2021/05/02 07:28:17;;;;;;;7.47;6.80;;;11.50;87.20;;;;;;5058288;28;20418;-84
2021/05/02 07:30:43;;;;;;;8.27;7.33;;;11.60;87.20;;;;;;5075451;28;20176;-83
2021/05/02 07:33:09;;;;;;;7.43;6.83;;;11.60;90.00;;;;;;5072202;28;20509;-83
2021/05/02 07:35:35;;;;;;;8.10;7.33;;;12.00;95.90;;;;;;5073673;28;20653;-83
2021/05/02 07:38:03;;;;;;;6.90;6.20;;;12.50;95.40;;;;;;5073002;28;20205;-83
2021/05/02 07:40:29;;;;;;;7.53;5.43;;;13.20;95.40;;;;;;5072709;28;20259;-83
2021/05/02 07:42:55;;;;;;;6.00;5.40;;;13.60;89.20;;;;;;5071684;28;20422;-83
2021/05/02 07:45:20;;;;;;;5.53;5.13;;;14.00;91.90;;;;;;5073651;28;20424;-83
2021/05/02 07:47:46;;;;;;;6.93;5.73;;;14.40;86.70;;;;;;5073466;28;20434;-83
2021/05/02 07:50:12;;;;;;;5.63;5.23;;;14.70;88.70;;;;;;5072925;28;20180;-83
2021/05/02 07:52:38;;;;;;;8.50;7.60;;;15.10;86.00;;;;;;5074345;28;20183;-81
2021/05/02 07:55:04;;;;;;;10.27;7.97;;;15.50;87.10;;;;;;5059536;28;20462;-81
2021/05/02 07:57:30;;;;;;;11.90;10.30;;;16.10;80.80;;;;;;5074676;28;20489;-83
2021/05/02 07:59:56;;;;;;;11.40;10.27;;;16.60;75.80;;;;;;5073570;28;20429;-79
2021/05/02 08:02:22;;;;;;;22.17;17.43;;;17.00;70.70;;;;;;5075096;28;20270;-80
2021/05/02 08:04:48;;;;;;;11.50;8.93;;;17.20;67.30;;;;;;5073491;28;20265;-81
2021/05/02 08:07:14;;;;;;;11.67;9.00;;;17.20;66.40;;;;;;5073938;28;20450;-81
2021/05/02 08:09:40;;;;;;;7.33;6.33;;;17.40;65.00;;;;;;5074471;28;20180;-82
2021/05/02 08:12:08;;;;;;;5.37;4.93;;;17.50;64.20;;;;;;5073992;28;20181;-83
2021/05/02 08:14:34;;;;;;;5.73;5.30;;;17.40;61.00;;;;;;5074408;28;20231;-83
2021/05/02 08:17:01;;;;;;;4.70;3.90;;;17.30;60.50;;;;;;5072766;28;20459;-83
2021/05/02 08:19:27;;;;;;;5.57;3.67;;;17.00;58.70;;;;;;5074671;28;20437;-83
2021/05/02 08:21:53;;;;;;;4.97;4.50;;;16.90;60.00;;;;;;5074177;28;20413;-84
2021/05/02 08:24:19;;;;;;;4.40;3.77;;;16.80;62.10;;;;;;5074686;28;20500;-83
2021/05/02 08:26:45;;;;;;;4.60;4.20;;;16.80;60.60;;;;;;5056897;28;20445;-82
2021/05/02 08:29:12;;;;;;;5.87;3.60;;;16.90;60.80;;;;;;5074343;28;20441;-84
2021/05/02 08:31:38;;;;;;;3.40;3.20;;;16.80;58.70;;;;;;5074130;28;20231;-83
2021/05/02 08:34:04;;;;;;;5.00;4.50;;;16.80;61.30;;;;;;5073489;28;20423;-83
2021/05/02 08:36:30;;;;;;;4.80;4.40;;;17.00;60.80;;;;;;5056262;28;20400;-84
2021/05/02 08:38:58;;;;;;;5.10;4.70;;;17.10;61.30;;;;;;5073521;28;20481;-83
2021/05/02 08:41:24;;;;;;;4.93;4.53;;;17.30;62.20;;;;;;5074579;28;20516;-84
2021/05/02 08:43:56;;;;;;;5.00;4.70;;;17.30;58.60;;;;;;5055536;28;20880;-84
2021/05/02 08:46:23;;;;;;;6.77;5.80;;;17.30;61.60;;;;;;5073936;28;20211;-85
2021/05/02 08:48:49;;;;;;;36.93;27.63;;;17.20;64.10;;;;;;5073230;28;20781;-85
2021/05/02 08:51:16;;;;;;;14.23;12.10;;;17.30;65.30;;;;;;5073833;28;20430;-85
2021/05/02 08:53:42;;;;;;;9.30;7.87;;;17.40;64.40;;;;;;5074485;28;20405;-85
2021/05/02 08:56:08;;;;;;;5.07;4.60;;;17.60;65.40;;;;;;5073258;28;20466;-85
2021/05/02 08:58:34;;;;;;;5.63;5.03;;;17.80;64.30;;;;;;5073340;28;20655;-85
2021/05/02 09:01:01;;;;;;;6.00;5.40;;;18.00;64.50;;;;;;5073223;28;20413;-85
2021/05/02 09:03:47;;;;;;;6.47;5.00;;;18.30;61.60;;;;;;5073609;28;20184;-85
2021/05/02 09:06:19;;;;;;;6.83;5.50;;;18.50;61.80;;;;;;5073713;28;20898;-85
2021/05/02 09:08:46;;;;;;;5.30;4.90;;;18.70;60.60;;;;;;5074446;28;20384;-86
2021/05/02 09:11:13;;;;;;;6.07;5.23;;;18.70;58.80;;;;;;5072828;28;20419;-85
2021/05/02 09:13:50;;;;;;;7.80;5.50;;;18.70;59.20;;;;;;5073620;28;20431;-85
2021/05/02 09:16:16;;;;;;;5.17;4.70;;;18.70;58.40;;;;;;5076440;28;20462;-86
2021/05/02 09:18:49;;;;;;;5.47;4.43;;;18.70;59.70;;;;;;5055944;28;20441;-87
2021/05/02 09:21:17;;;;;;;5.97;5.50;;;18.80;59.50;;;;;;5072771;28;20423;-87
2021/05/02 09:23:43;;;;;;;5.87;5.43;;;18.90;59.20;;;;;;5058636;28;20486;-83
2021/05/02 09:26:23;;;;;;;5.23;4.73;;;19.00;58.10;;;;;;5073241;28;21071;-81
2021/05/02 09:28:52;;;;;;;68.30;54.20;;;19.10;58.60;;;;;;5074267;28;20403;-83
2021/05/02 09:31:21;;;;;;;11.95;10.75;;;19.20;60.20;;;;;;5072456;28;20901;-83
2021/05/02 09:33:48;;;;;;;7.87;7.17;;;19.20;59.40;;;;;;5072840;28;20655;-83
2021/05/02 09:36:16;;;;;;;8.10;5.87;;;19.20;59.00;;;;;;5072789;28;20486;-83
2021/05/02 09:38:43;;;;;;;6.17;5.57;;;19.10;59.10;;;;;;5073087;28;20415;-84
2021/05/02 09:41:10;;;;;;;6.87;6.27;;;19.00;59.90;;;;;;5072200;28;20766;-83
2021/05/02 09:43:47;;;;;;;8.53;6.00;;;18.90;60.60;;;;;;5072300;28;20414;-83
2021/05/02 09:46:27;;;;;;;5.37;4.97;;;18.90;61.00;;;;;;5071119;28;20429;-82
2021/05/02 09:48:56;;;;;;;6.93;6.27;;;18.80;57.20;;;;;;5071845;28;20404;-89
2021/05/02 09:51:25;;;;;;;4.33;3.93;;;18.80;62.90;;;;;;5072215;28;20459;-82
2021/05/02 09:54:11;;;;;;;5.07;4.47;;;18.40;52.70;;;;;;5054573;28;20410;-84
2021/05/02 09:56:43;;;;;;;4.27;4.07;;;18.10;54.00;;;;;;5072473;28;20244;-81
2021/05/02 09:59:47;;;;;;;4.10;3.80;;;17.70;53.90;;;;;;5078001;28;20400;-95
2021/05/02 10:02:13;;;;;;;3.57;3.37;;;17.20;54.10;;;;;;5081089;28;20422;-90
2021/05/02 10:04:44;;;;;;;4.95;4.20;;;16.70;55.20;;;;;;5081007;28;20422;-95
2021/05/02 10:07:11;;;;;;;4.33;4.03;;;16.30;56.10;;;;;;5070880;28;20191;-76
2021/05/02 10:09:38;;;;;;;52.57;35.27;;;15.80;57.40;;;;;;5072375;28;20481;-76
2021/05/02 10:12:09;;;;;;;15.60;13.03;;;15.40;58.90;;;;;;5071259;28;20454;-76
2021/05/02 10:14:35;;;;;;;8.27;7.53;;;15.10;59.60;;;;;;5057040;28;20573;-96
2021/05/02 10:17:01;;;;;;;11.53;10.33;;;14.80;59.60;;;;;;5076034;28;20421;-96
2021/05/02 10:19:28;;;;;;;5.20;4.80;;;14.60;61.50;;;;;;5077932;28;20476;-96
2021/05/02 10:21:54;;;;;;;4.33;4.13;;;14.70;63.00;;;;;;5075803;28;20415;-94
2021/05/02 10:24:21;;;;;;;4.67;4.03;;;14.80;61.20;;;;;;5079167;28;20461;-92
2021/05/02 10:26:50;;;;;;;4.33;4.00;;;15.10;65.20;;;;;;5080437;28;20415;-94
2021/05/02 10:29:29;;;;;;;3.80;3.60;;;15.50;63.60;;;;;;5077793;28;20792;-95
2021/05/02 10:32:00;;;;;;;5.47;3.77;;;15.80;59.60;;;;;;5078904;28;20430;-93
2021/05/02 10:34:31;;;;;;;4.00;3.80;;;16.10;58.10;;;;;;5078995;28;20444;-96
2021/05/02 10:37:26;;;;;;;4.40;4.10;;;16.20;55.00;;;;;;5083621;28;20457;-95
2021/05/02 10:40:10;;;;;;;4.40;4.10;;;16.00;53.70;;;;;;5076032;28;20420;-95
2021/05/02 10:42:46;;;;;;;4.40;4.13;;;15.80;54.70;;;;;;5075391;28;20420;-91
2021/05/02 10:45:30;;;;;;;4.60;4.27;;;15.60;54.70;;;;;;5075865;28;20438;-90
2021/05/02 10:47:57;;;;;;;7.27;5.83;;;15.30;56.10;;;;;;5073802;28;20418;-91
2021/05/02 10:50:33;;;;;;;4.50;4.10;;;15.10;57.40;;;;;;5074893;28;20764;-95
2021/05/02 10:53:04;;;;;;;5.17;4.77;;;14.90;58.10;;;;;;5074153;28;20458;-95
2021/05/02 10:55:49;;;;;;;4.83;4.53;;;15.00;60.50;;;;;;5075380;28;20452;-90
2021/05/02 10:58:19;;;;;;;5.30;4.80;;;15.00;62.80;;;;;;5074406;28;20445;-95
2021/05/02 11:00:57;;;;;;;7.47;4.80;;;15.00;59.90;;;;;;5078888;28;20418;-96
2021/05/02 11:03:52;;;;;;;4.33;3.97;;;15.10;57.70;;;;;;5080163;28;20407;-96
2021/05/02 11:06:39;;;;;;;4.30;4.03;;;15.00;56.90;;;;;;5076693;28;20556;-95
2021/05/02 11:09:19;;;;;;;4.30;4.10;;;14.90;57.20;;;;;;5076828;28;20435;-95
2021/05/02 11:11:50;;;;;;;8.30;7.50;;;14.70;56.50;;;;;;5079789;28;20421;-96
2021/05/02 11:14:21;;;;;;;5.70;5.30;;;14.50;57.00;;;;;;5077909;28;20469;-96
2021/05/02 11:17:08;;;;;;;5.93;5.40;;;14.30;57.30;;;;;;5078693;28;20413;-96
2021/05/02 11:19:35;;;;;;;4.83;4.37;;;14.10;57.80;;;;;;5064167;28;20455;-94
2021/05/02 11:22:19;;;;;;;4.70;4.40;;;14.00;58.30;;;;;;5077889;28;20411;-95
2021/05/02 11:24:47;;;;;;;5.20;4.93;;;13.90;57.80;;;;;;5057083;28;20563;-94
2021/05/02 11:29:57;;;;;;;5.17;4.77;;;13.70;59.30;;;;;;5062266;28;20402;-94
2021/05/02 11:32:29;;;;;;;5.77;5.30;;;13.70;58.50;;;;;;5062117;28;20409;-94
2021/05/02 11:35:11;;;;;;;5.27;4.87;;;13.80;58.30;;;;;;5061307;28;20451;-94
2021/05/02 11:37:49;;;;;;;5.10;4.80;;;13.80;58.50;;;;;;5065825;28;20502;-95
2021/05/02 11:40:18;;;;;;;5.10;4.73;;;13.70;57.80;;;;;;5080880;28;20593;-94
2021/05/02 11:43:17;;;;;;;5.50;5.00;;;13.70;58.50;;;;;;5079916;28;20416;-95
2021/05/02 11:45:52;;;;;;;4.57;4.30;;;13.70;58.80;;;;;;5078227;28;20953;-95
2021/05/02 11:48:30;;;;;;;4.50;4.20;;;13.60;58.50;;;;;;5078765;28;20434;-94
2021/05/02 11:51:03;;;;;;;4.33;4.03;;;13.60;57.80;;;;;;5080181;28;20868;-94
2021/05/02 11:53:36;;;;;;;4.53;4.33;;;13.70;60.60;;;;;;5086126;28;20431;-94
2021/05/02 11:56:09;;;;;;;4.20;3.90;;;13.70;59.00;;;;;;5091396;28;20443;-94
2021/05/02 11:58:35;;;;;;;4.70;4.30;;;13.70;59.30;;;;;;5095205;28;20431;-94
2021/05/02 12:01:05;;;;;;;4.63;4.40;;;13.70;59.00;;;;;;5096865;28;20409;-93
2021/05/02 12:03:39;;;;;;;4.20;3.90;;;13.80;58.00;;;;;;5092588;28;20174;-93
2021/05/02 12:06:07;;;;;;;233.87;150.00;;;13.90;57.40;;;;;;5084244;28;20419;-90
2021/05/02 12:08:34;;;;;;;79.80;61.25;;;13.90;57.90;;;;;;5083573;28;20418;-93
2021/05/02 12:11:05;;;;;;;4.23;3.93;;;13.90;58.10;;;;;;5089139;28;20203;-90
2021/05/02 12:13:43;;;;;;;3.77;3.60;;;13.90;56.20;;;;;;5087111;28;20892;-89
2021/05/02 12:16:10;;;;;;;4.57;3.93;;;13.80;57.90;;;;;;5079183;28;20451;-94
2021/05/02 12:18:52;;;;;;;5.43;4.13;;;13.80;57.60;;;;;;5081199;28;20798;-94
2021/05/02 12:21:38;;;;;;;4.50;4.20;;;13.90;58.00;;;;;;5076946;28;20391;-94
2021/05/02 12:24:10;;;;;;;5.13;4.63;;;13.90;56.60;;;;;;5068346;28;20448;-95
2021/05/02 12:26:48;;;;;;;7.30;6.70;;;14.00;57.30;;;;;;5058663;28;20403;-95
2021/05/02 12:29:19;;;;;;;5.10;4.70;;;14.00;56.70;;;;;;5057885;28;20412;-94
2021/05/02 12:32:08;;;;;;;4.20;3.87;;;14.00;55.90;;;;;;5058688;28;20499;-95
2021/05/02 12:34:41;;;;;;;4.37;4.13;;;14.00;55.90;;;;;;5060807;28;20537;-96
2021/05/02 12:37:19;;;;;;;4.10;3.73;;;14.00;55.50;;;;;;5039706;28;20417;-96
2021/05/02 12:39:49;;;;;;;4.17;3.90;;;13.90;56.20;;;;;;5048734;28;20924;-95
2021/05/02 12:42:15;;;;;;;4.30;4.00;;;13.80;56.20;;;;;;5040947;28;20421;-95
2021/05/02 12:44:50;;;;;;;4.30;4.00;;;13.80;56.50;;;;;;5058345;28;20442;-96
2021/05/02 12:47:24;;;;;;;5.20;4.83;;;13.80;56.40;;;;;;5058103;28;20411;-96
2021/05/02 12:49:58;;;;;;;4.80;4.40;;;13.70;56.80;;;;;;5058490;28;20521;-96
2021/05/02 12:52:41;;;;;;;5.60;4.90;;;13.60;55.40;;;;;;5041275;28;20397;-95